リーブルヴィル の空港の天気 - METARとTAF

リーブルヴィル国際空港 ( FOOL / LBV ) - ガボン リーブルヴィル
飛行場実況気象(Metar)
観測時間10/16 07:30 WAT (10/16 06:30 UTC)
風向・風速南南東 3m/s
視程8000m
天気現象弱い雨
全天の4割程度の雲 雲底高度 150m
全天の4割程度の雲 雲底高度 340m
少しの雲 雲底高度 610m
全天の8割程度の雲 雲底高度 670m
気温25℃
湿度100%
気圧1014hPa
METARFOOL 160630Z 16005KT 120V190 8000 -RA SCT005 SCT011 FEW020CB BKN022 25/25 Q1014 RETS NOSIG
過去の天気等 Google飛行場航空写真 Wunderground天気予報

過去48時間のMETAR

飛行場予報(TAF)
発表時間: 10/16 06:00 WAT (10/16 05:00 UTC)
予報対象時間: 16日7時 WAT ~ 17日13時 WAT
風向・風速南東 2m/s
視程7000m
天気現象
全天の8割程度の雲 雲底高度 300m
少しの積乱雲 雲底高度 490m
全天を覆う雲 雲底高度 730m
16日7時 WAT ~ 16日10時 WAT に一時的に
視程2500m
天気現象雷雨
16日10時 WAT ~ 16日12時 WAT に徐々に
天気現象運行に影響にある天気現象が終了
全天の4割程度の雲 雲底高度 300m
全天の8割程度の雲 雲底高度 910m
16日15時 WAT ~ 16日20時 WAT に 確率 40% で一時的に
天気現象
全天の8割程度の雲 雲底高度 300m
少しの積乱雲 雲底高度 610m
全天を覆う雲 雲底高度 790m
TAF FOOL 160500Z 1606/1712 14004KT 7000 TS BKN010 FEW016CB OVC024
TEMPO 1606/1609 2500 TSRA
BECMG 1609/1611 NSW SCT010 BKN030
PROB40 TEMPO 1614/1619 TS BKN010 FEW020CB OVC026